createdAt,value
2023-04-16T05:46:05.113Z,100292.81
2023-04-16T05:56:27.235Z,100308.59
2023-04-16T06:06:48.966Z,100315.38
2023-04-16T06:17:10.910Z,100324.28
2023-04-16T06:27:32.948Z,100337.28
2023-04-16T06:37:54.441Z,100338.03
2023-04-16T06:48:16.103Z,100346.50
2023-04-16T06:58:37.904Z,100354.91
2023-04-16T07:09:00.107Z,100369.22
2023-04-16T07:19:21.862Z,100361.84
2023-04-16T07:29:45.634Z,100369.41
2023-04-16T07:40:07.719Z,100369.00
2023-04-16T07:50:29.626Z,100369.66
2023-04-16T08:00:52.183Z,100370.34
2023-04-16T08:11:13.600Z,100367.41
2023-04-16T08:21:35.532Z,100372.47
2023-04-16T08:31:57.252Z,100360.63
2023-04-16T08:42:40.985Z,100378.75
2023-04-16T08:53:07.060Z,100363.88
2023-04-16T09:03:31.230Z,100372.53
2023-04-16T09:13:53.870Z,100364.38
2023-04-16T09:24:15.556Z,100374.06
2023-04-16T09:34:54.132Z,100386.31
2023-04-16T09:45:15.905Z,100388.53
2023-04-16T09:55:37.705Z,100409.00
2023-04-16T10:06:18.123Z,100400.34
2023-04-16T10:16:41.171Z,100422.22
2023-04-16T10:27:03.405Z,100422.22
2023-04-16T10:37:32.141Z,100429.72
2023-04-16T10:47:57.792Z,100419.22
2023-04-16T10:58:35.473Z,100428.34
2023-04-16T11:08:57.090Z,100426.22
2023-04-16T11:19:18.776Z,100435.19
2023-04-16T11:29:41.482Z,100442.28
2023-04-16T11:40:07.289Z,100440.91
2023-04-16T11:50:29.550Z,100432.50
2023-04-16T12:00:53.572Z,100437.38
2023-04-16T12:11:15.663Z,100436.38
2023-04-16T12:21:45.870Z,100446.97
2023-04-16T12:32:23.160Z,100442.41
2023-04-16T12:42:44.995Z,100433.63
2023-04-16T12:53:06.685Z,100420.00
2023-04-16T13:03:28.750Z,100429.13
2023-04-16T13:13:50.533Z,100430.25
2023-04-16T13:24:12.478Z,100426.03
2023-04-16T13:34:33.781Z,100420.13
2023-04-16T13:44:55.082Z,100419.41
2023-04-16T13:55:20.768Z,100419.59
2023-04-16T14:05:43.191Z,100414.56
2023-04-16T14:16:05.532Z,100419.81
2023-04-16T14:26:27.719Z,100425.44
2023-04-16T16:04:45.933Z,100439.91
2023-04-16T16:15:08.381Z,100434.84
2023-04-16T16:25:30.424Z,100431.44
2023-04-16T16:35:51.757Z,100427.38
2023-04-16T16:46:13.703Z,100431.78
2023-04-16T16:56:35.167Z,100438.66
2023-04-16T17:06:57.183Z,100453.09
2023-04-16T17:17:19.463Z,100467.44
2023-04-16T17:27:40.822Z,100465.88
2023-04-16T17:38:02.460Z,100473.59
2023-04-16T17:48:23.702Z,100488.88
2023-04-16T17:58:45.368Z,100498.19
2023-04-16T18:09:07.390Z,100499.00
2023-04-16T18:19:29.310Z,100514.16
2023-04-16T18:29:51.490Z,100514.16
2023-04-16T18:40:13.339Z,100516.63
2023-04-16T18:50:35.152Z,100512.38
2023-04-16T19:01:00.552Z,100509.03
2023-04-16T19:11:22.387Z,100508.16
2023-04-16T19:21:44.383Z,100510.69
2023-04-16T19:32:06.079Z,100504.78
2023-04-16T19:42:27.820Z,100493.88
2023-04-16T19:52:49.459Z,100488.06
2023-04-16T20:03:11.323Z,100482.22
2023-04-16T20:13:33.222Z,100484.75
2023-04-16T20:23:55.466Z,100484.81
2023-04-16T20:34:17.137Z,100491.59
2023-04-16T20:44:41.582Z,100473.09
2023-04-16T20:55:03.241Z,100480.75
2023-04-16T21:05:26.562Z,100465.56
